createdAt,value
2023-04-16T00:02:40.098Z,11.50
2023-04-16T00:05:47.203Z,11.63
2023-04-16T00:08:53.050Z,10.68
2023-04-16T00:11:59.911Z,11.75
2023-04-16T00:15:05.148Z,11.40
2023-04-16T00:18:12.483Z,10.95
2023-04-16T00:21:17.997Z,10.20
2023-04-16T00:24:23.912Z,10.25
2023-04-16T00:27:30.047Z,10.25
2023-04-16T00:30:36.972Z,9.63
2023-04-16T00:33:44.967Z,10.03
2023-04-16T00:36:51.666Z,10.03
2023-04-16T00:39:57.854Z,9.58
2023-04-16T00:43:04.393Z,9.88
2023-04-16T00:46:11.510Z,9.83
2023-04-16T00:49:19.065Z,10.05
2023-04-16T00:52:25.099Z,9.30
2023-04-16T00:55:31.856Z,9.53
2023-04-16T00:58:38.069Z,9.53
2023-04-16T01:01:44.451Z,10.82
2023-04-16T01:04:51.897Z,8.65
2023-04-16T01:07:58.694Z,9.40
2023-04-16T01:11:04.570Z,10.13
2023-04-16T01:14:11.080Z,10.03
2023-04-16T01:17:18.755Z,9.90
2023-04-16T01:20:24.676Z,9.55
2023-04-16T01:23:29.900Z,10.45
2023-04-16T01:26:35.432Z,9.73
2023-04-16T01:29:40.709Z,8.93
2023-04-16T01:32:48.727Z,9.98
2023-04-16T01:35:55.393Z,9.05
2023-04-16T01:39:02.215Z,10.40
2023-04-16T01:42:08.616Z,10.23
2023-04-16T01:45:14.944Z,10.25
2023-04-16T01:48:20.346Z,10.23
2023-04-16T01:51:25.699Z,10.38
2023-04-16T01:54:32.344Z,10.63
2023-04-16T01:57:37.317Z,10.55
2023-04-16T02:00:43.055Z,9.93
2023-04-16T02:03:49.016Z,9.68
2023-04-16T02:06:57.456Z,9.13
2023-04-16T02:10:04.215Z,10.03
2023-04-16T02:13:10.520Z,10.85
2023-04-16T02:16:18.831Z,8.75
2023-04-16T02:19:26.334Z,9.63
2023-04-16T02:22:32.108Z,10.40
2023-04-16T02:25:37.858Z,9.68
2023-04-16T02:28:45.138Z,9.53
2023-04-16T02:31:51.405Z,8.98
2023-04-16T02:34:58.546Z,10.18
2023-04-16T02:38:03.658Z,9.30
2023-04-16T02:41:08.542Z,9.63
2023-04-16T02:44:13.661Z,8.90
2023-04-16T02:47:19.659Z,10.23
2023-04-16T02:50:26.458Z,9.10
2023-04-16T02:53:32.991Z,10.10
2023-04-16T02:56:38.203Z,9.73
2023-04-16T02:59:43.916Z,9.03
2023-04-16T03:02:50.676Z,9.65
2023-04-16T03:05:56.877Z,9.90
2023-04-16T03:09:02.560Z,9.13
2023-04-16T03:12:08.993Z,9.48
2023-04-16T03:15:15.174Z,9.68
2023-04-16T03:18:21.968Z,8.95
2023-04-16T03:21:29.217Z,10.05
2023-04-16T03:24:35.039Z,10.55
2023-04-16T03:27:42.218Z,9.58
2023-04-16T03:30:49.009Z,10.43
2023-04-16T03:33:55.224Z,9.90
2023-04-16T03:37:03.405Z,9.40
2023-04-16T03:40:08.956Z,9.80
2023-04-16T03:43:15.462Z,9.88
2023-04-16T03:46:22.979Z,9.88
2023-04-16T03:49:29.441Z,9.28
2023-04-16T03:52:35.179Z,8.83
2023-04-16T03:55:41.257Z,10.13
2023-04-16T03:58:49.558Z,8.85
2023-04-16T04:01:55.931Z,8.60
2023-04-16T04:05:04.261Z,8.40
2023-04-16T04:08:11.994Z,9.50
2023-04-16T04:11:18.072Z,9.05
2023-04-16T04:14:25.497Z,8.85
2023-04-16T04:17:32.891Z,9.30
2023-04-16T04:20:39.722Z,9.20
2023-04-16T04:23:49.464Z,7.78
2023-04-16T04:26:54.378Z,8.85
2023-04-16T04:29:59.805Z,8.75
2023-04-16T04:33:05.666Z,8.98
2023-04-16T04:36:11.081Z,9.08
2023-04-16T04:39:17.138Z,9.05
2023-04-16T04:42:23.003Z,8.75
2023-04-16T04:45:31.802Z,9.70
2023-04-16T04:48:37.782Z,8.18
2023-04-16T04:51:44.571Z,8.93
2023-04-16T04:54:53.354Z,8.90
2023-04-16T04:58:00.170Z,9.18
2023-04-16T05:01:05.358Z,8.70
2023-04-16T05:04:11.870Z,9.30
2023-04-16T05:07:18.534Z,9.60
2023-04-16T05:10:26.159Z,8.70
2023-04-16T05:13:25.097Z,9.65
2023-04-16T05:16:11.165Z,9.38
2023-04-16T05:19:05.304Z,8.98
2023-04-16T05:21:52.717Z,7.83
2023-04-16T05:24:47.472Z,8.70
2023-04-16T05:27:42.791Z,8.50
2023-04-16T05:30:49.009Z,8.80
2023-04-16T05:33:56.012Z,8.45
2023-04-16T05:37:03.054Z,8.28
2023-04-16T05:40:09.382Z,7.60
2023-04-16T05:43:16.555Z,8.73
2023-04-16T05:46:22.853Z,8.73
2023-04-16T05:49:31.053Z,8.18
2023-04-16T05:52:36.303Z,9.30
2023-04-16T05:55:44.175Z,9.33
2023-04-16T05:58:51.196Z,8.78
2023-04-16T06:01:59.816Z,8.85
2023-04-16T06:05:07.037Z,8.38
2023-04-16T06:08:14.377Z,8.28
2023-04-16T06:11:21.751Z,7.90
2023-04-16T06:14:28.799Z,8.10
2023-04-16T06:17:33.908Z,8.83
2023-04-16T06:20:40.694Z,8.85
2023-04-16T06:23:48.622Z,8.45
2023-04-16T06:26:54.532Z,8.30
2023-04-16T06:30:01.895Z,7.87
2023-04-16T06:33:09.542Z,7.90
2023-04-16T06:36:15.853Z,8.23
2023-04-16T06:39:22.713Z,7.45
2023-04-16T06:42:29.266Z,7.75
2023-04-16T06:45:34.876Z,8.35
2023-04-16T06:48:40.378Z,8.95
2023-04-16T06:51:47.455Z,8.33
2023-04-16T06:54:54.404Z,8.68
2023-04-16T06:58:00.520Z,8.45
2023-04-16T07:01:06.859Z,8.70
2023-04-16T07:04:13.803Z,8.53
2023-04-16T07:07:20.176Z,8.93
2023-04-16T07:10:27.908Z,7.67
2023-04-16T07:13:34.953Z,8.00
2023-04-16T07:16:42.136Z,7.65
2023-04-16T07:19:49.412Z,7.62
2023-04-16T07:22:56.400Z,8.23
2023-04-16T07:26:01.472Z,7.72
2023-04-16T07:29:11.008Z,7.87
2023-04-16T07:32:17.285Z,7.22
2023-04-16T07:35:25.523Z,8.25
2023-04-16T07:38:31.402Z,7.53
2023-04-16T07:41:37.175Z,7.92
2023-04-16T07:44:43.002Z,7.35
2023-04-16T07:47:48.217Z,7.42
2023-04-16T07:50:54.026Z,7.37
2023-04-16T07:53:59.632Z,7.42
2023-04-16T07:57:06.280Z,7.22
2023-04-16T08:00:15.775Z,5.58
2023-04-16T08:03:23.482Z,6.12
2023-04-16T08:06:30.457Z,6.20
2023-04-16T08:09:39.547Z,5.78
2023-04-16T08:12:44.372Z,5.67
2023-04-16T08:15:49.768Z,5.35
2023-04-16T08:18:55.706Z,5.72
2023-04-16T08:22:00.378Z,5.53
2023-04-16T08:25:06.625Z,5.47
2023-04-16T08:28:14.161Z,5.95
2023-04-16T08:31:20.756Z,4.95
2023-04-16T08:34:26.750Z,5.87
2023-04-16T08:37:33.380Z,6.33
2023-04-16T08:40:43.908Z,5.70
2023-04-16T08:43:50.446Z,5.58
2023-04-16T08:46:55.666Z,5.08
2023-04-16T08:50:01.637Z,5.05
2023-04-16T08:53:13.844Z,5.10
2023-04-16T08:56:21.988Z,5.37
2023-04-16T08:59:28.927Z,5.37
2023-04-16T09:02:35.499Z,5.03
2023-04-16T09:05:42.433Z,5.42
2023-04-16T09:08:50.603Z,5.25
2023-04-16T09:11:57.386Z,5.20
2023-04-16T09:15:09.011Z,5.37
2023-04-16T09:18:16.403Z,5.30
2023-04-16T09:21:25.918Z,5.40
2023-04-16T09:24:32.289Z,5.37
2023-04-16T09:27:37.750Z,4.85
2023-04-16T09:30:43.597Z,7.62
2023-04-16T09:33:51.530Z,6.65
2023-04-16T09:36:58.756Z,5.65
2023-04-16T09:40:18.301Z,5.87
2023-04-16T09:43:29.654Z,5.47
2023-04-16T09:46:46.164Z,5.17
2023-04-16T09:49:57.259Z,5.20
2023-04-16T09:53:06.316Z,4.87
2023-04-16T09:56:15.858Z,5.05
2023-04-16T09:59:22.965Z,5.37
2023-04-16T10:02:30.260Z,4.75
2023-04-16T10:05:36.855Z,5.10
2023-04-16T10:08:42.934Z,4.70
2023-04-16T10:11:48.002Z,4.62
2023-04-16T10:14:53.772Z,4.83
2023-04-16T10:18:00.635Z,5.08
2023-04-16T10:21:07.544Z,4.60
2023-04-16T10:24:12.884Z,5.28
2023-04-16T10:27:18.878Z,5.03
2023-04-16T10:30:26.106Z,4.62
2023-04-16T10:33:31.598Z,4.55
2023-04-16T10:36:41.117Z,4.87
2023-04-16T10:39:47.209Z,4.50
2023-04-16T10:42:55.249Z,4.67
2023-04-16T10:46:03.204Z,4.00
2023-04-16T10:49:11.811Z,4.75
2023-04-16T10:52:31.080Z,4.40
2023-04-16T10:55:39.746Z,4.40
2023-04-16T10:58:46.284Z,4.60
2023-04-16T11:02:00.920Z,4.55
2023-04-16T11:05:07.795Z,4.55
2023-04-16T11:08:13.537Z,4.28
2023-04-16T11:11:22.041Z,3.90
2023-04-16T11:14:28.869Z,4.42
2023-04-16T11:17:34.750Z,4.45
2023-04-16T11:20:42.401Z,4.53
2023-04-16T11:24:03.639Z,4.15
2023-04-16T11:27:11.604Z,4.50
2023-04-16T11:30:20.262Z,4.12
2023-04-16T11:33:26.974Z,4.05
2023-04-16T11:36:31.907Z,4.45
2023-04-16T11:39:38.716Z,4.50
2023-04-16T11:42:49.772Z,4.12
2023-04-16T11:46:24.560Z,4.25
2023-04-16T11:49:20.865Z,4.17
2023-04-16T11:52:26.016Z,4.50
2023-04-16T11:55:31.821Z,4.22
2023-04-16T11:58:43.248Z,4.97
2023-04-16T12:01:46.923Z,5.08
2023-04-16T12:04:53.696Z,4.53
2023-04-16T12:07:59.857Z,4.95
2023-04-16T12:11:10.741Z,4.80
2023-04-16T12:14:28.618Z,4.33
2023-04-16T12:17:38.318Z,4.65
2023-04-16T12:20:51.271Z,4.60
2023-04-16T12:24:00.094Z,4.95
2023-04-16T12:27:09.598Z,4.42
2023-04-16T12:30:21.115Z,4.53
2023-04-16T12:33:31.647Z,4.50
2023-04-16T12:36:38.694Z,6.95
2023-04-16T12:39:48.038Z,10.23
2023-04-16T12:42:59.095Z,6.17
2023-04-16T12:46:04.760Z,4.87
2023-04-16T12:49:11.383Z,4.95
2023-04-16T12:52:17.955Z,4.25
2023-04-16T12:55:24.431Z,4.60
2023-04-16T12:58:31.130Z,4.25
2023-04-16T13:01:37.554Z,4.30
2023-04-16T13:04:43.234Z,4.12
2023-04-16T13:07:51.488Z,4.47
2023-04-16T13:10:57.397Z,4.08
2023-04-16T13:14:03.272Z,4.28
2023-04-16T13:17:10.587Z,4.45
2023-04-16T13:20:10.197Z,4.62
2023-04-16T13:23:17.217Z,4.37
2023-04-16T13:26:24.183Z,4.60
2023-04-16T13:29:31.221Z,4.50
2023-04-16T13:32:37.509Z,4.45
2023-04-16T13:35:43.892Z,4.12
2023-04-16T13:38:49.772Z,4.75
2023-04-16T13:41:58.198Z,5.37
2023-04-16T13:45:06.353Z,4.53
2023-04-16T13:48:12.463Z,5.12
2023-04-16T13:51:20.446Z,4.55
2023-04-16T13:54:26.911Z,4.30
2023-04-16T13:57:34.443Z,4.30
2023-04-16T14:00:34.703Z,4.40
2023-04-16T14:03:28.694Z,4.50
2023-04-16T14:06:35.845Z,3.80
2023-04-16T14:09:42.992Z,3.35
2023-04-16T14:12:49.628Z,3.33
2023-04-16T14:15:55.510Z,3.12
2023-04-16T14:19:01.966Z,3.70
2023-04-16T14:22:09.552Z,3.60
2023-04-16T14:25:16.554Z,3.60
2023-04-16T14:28:22.919Z,3.62
2023-04-16T14:31:31.134Z,3.55
2023-04-16T14:34:37.022Z,3.25
2023-04-16T14:37:44.074Z,4.25
2023-04-16T14:40:50.316Z,4.70
2023-04-16T14:43:56.779Z,5.67
2023-04-16T14:47:03.470Z,4.72
2023-04-16T14:50:10.616Z,3.25
2023-04-16T14:53:15.947Z,3.62
2023-04-16T14:56:21.025Z,4.05
2023-04-16T14:59:27.242Z,4.17
2023-04-16T15:02:32.590Z,4.80
2023-04-16T15:05:39.565Z,4.95
2023-04-16T15:08:48.511Z,3.67
2023-04-16T15:11:53.938Z,3.27
2023-04-16T15:15:00.790Z,3.10
2023-04-16T15:18:08.076Z,3.10
2023-04-16T15:21:16.408Z,3.42
2023-04-16T15:24:23.972Z,3.42
2023-04-16T15:27:28.940Z,2.75
2023-04-16T15:30:35.799Z,2.80
2023-04-16T15:33:40.871Z,2.80
2023-04-16T15:36:49.309Z,3.40
2023-04-16T15:39:55.529Z,3.12
2023-04-16T15:43:01.067Z,2.95
2023-04-16T15:46:08.562Z,4.37
2023-04-16T15:49:15.805Z,3.10
2023-04-16T15:52:22.367Z,2.80
2023-04-16T15:55:28.372Z,2.80
2023-04-16T15:58:36.386Z,2.87
2023-04-16T16:01:42.420Z,2.85
2023-04-16T16:04:50.515Z,2.77
2023-04-16T16:07:58.771Z,2.67
2023-04-16T16:11:06.419Z,2.80
2023-04-16T16:14:12.420Z,3.60
2023-04-16T16:17:20.034Z,2.90
2023-04-16T16:20:25.768Z,3.37
2023-04-16T16:23:34.609Z,4.47
2023-04-16T16:26:40.730Z,3.80
2023-04-16T16:29:47.606Z,3.75
2023-04-16T16:32:54.940Z,3.58
2023-04-16T16:36:00.581Z,3.15
2023-04-16T16:39:07.435Z,3.33
2023-04-16T16:42:15.437Z,3.70
2023-04-16T16:45:21.664Z,3.95
2023-04-16T16:48:28.062Z,3.87
2023-04-16T16:51:34.842Z,3.62
2023-04-16T16:54:42.311Z,3.20
2023-04-16T16:57:47.967Z,16.07
2023-04-16T17:00:54.548Z,7.03
2023-04-16T17:04:01.821Z,5.10
2023-04-16T17:07:09.019Z,4.05
2023-04-16T17:10:16.111Z,4.22
2023-04-16T17:13:25.633Z,3.80
2023-04-16T17:16:31.468Z,3.98
2023-04-16T17:19:39.957Z,3.90
2023-04-16T17:22:45.030Z,4.08
2023-04-16T17:25:50.721Z,4.47
2023-04-16T17:28:58.602Z,4.92
2023-04-16T17:32:04.346Z,4.42
2023-04-16T17:35:14.340Z,4.25
2023-04-16T17:38:19.480Z,4.72
2023-04-16T17:41:26.939Z,4.75
2023-04-16T17:44:34.843Z,23.67
2023-04-16T17:47:40.177Z,7.45
2023-04-16T17:50:47.419Z,5.42
2023-04-16T17:53:53.636Z,5.60
2023-04-16T17:57:02.299Z,5.22
2023-04-16T18:00:09.146Z,5.45
2023-04-16T18:03:19.402Z,4.80
2023-04-16T18:06:26.237Z,5.72
2023-04-16T18:09:33.859Z,5.65
2023-04-16T18:12:40.174Z,5.50
2023-04-16T18:15:49.574Z,5.45
2023-04-16T18:18:58.927Z,4.90
2023-04-16T18:22:07.119Z,5.20
2023-04-16T18:25:12.614Z,5.42
2023-04-16T18:28:20.133Z,5.53
2023-04-16T18:31:25.846Z,5.92
2023-04-16T18:34:32.891Z,5.72
2023-04-16T18:37:37.926Z,5.75
2023-04-16T18:40:48.529Z,5.87
2023-04-16T18:43:54.100Z,6.30
2023-04-16T18:47:00.678Z,6.20
2023-04-16T18:50:05.865Z,5.87
2023-04-16T18:53:12.469Z,6.25
2023-04-16T18:56:18.677Z,6.37
2023-04-16T18:59:24.344Z,6.40
2023-04-16T19:02:30.216Z,6.53
2023-04-16T19:05:36.537Z,6.22
2023-04-16T19:08:42.597Z,6.22
2023-04-16T19:11:49.256Z,6.67
2023-04-16T19:14:57.642Z,6.47
2023-04-16T19:18:04.491Z,6.72
2023-04-16T19:21:17.772Z,6.87
2023-04-16T19:24:23.939Z,7.22
2023-04-16T19:27:29.246Z,9.05
2023-04-16T19:30:35.411Z,11.43
2023-04-16T19:33:41.805Z,12.37
2023-04-16T19:36:46.865Z,8.50
2023-04-16T19:39:52.153Z,8.65
2023-04-16T19:42:58.186Z,6.55
2023-04-16T19:46:05.518Z,8.35
2023-04-16T19:49:13.620Z,7.10
2023-04-16T19:52:20.217Z,7.05
2023-04-16T19:55:25.484Z,6.58
2023-04-16T19:58:32.931Z,7.45
2023-04-16T20:01:40.264Z,6.90
2023-04-16T20:04:46.606Z,6.65
2023-04-16T20:07:53.385Z,6.15
2023-04-16T20:10:59.652Z,6.47
2023-04-16T20:14:07.701Z,6.85
2023-04-16T20:17:16.201Z,6.47
2023-04-16T20:20:23.194Z,6.37
2023-04-16T20:23:28.556Z,6.28
2023-04-16T20:26:34.981Z,5.70
2023-04-16T20:29:41.373Z,6.35
2023-04-16T20:32:47.415Z,6.05
2023-04-16T20:35:53.570Z,7.12
2023-04-16T20:39:01.285Z,6.25
2023-04-16T20:42:07.332Z,6.80
2023-04-16T20:45:12.959Z,5.22
2023-04-16T20:48:20.745Z,5.17
2023-04-16T20:51:28.250Z,5.87
2023-04-16T20:54:34.381Z,5.45
2023-04-16T20:57:39.627Z,5.40
2023-04-16T21:00:45.241Z,4.92
2023-04-16T21:03:50.746Z,4.90
2023-04-16T21:07:00.132Z,5.45
2023-04-16T21:10:08.646Z,4.83
2023-04-16T21:13:20.543Z,4.70
2023-04-16T21:16:27.094Z,4.92
2023-04-16T21:19:34.429Z,4.53
2023-04-16T21:22:43.038Z,4.37
2023-04-16T21:25:49.252Z,4.92
2023-04-16T21:28:55.279Z,4.20
2023-04-16T21:32:01.647Z,5.00
2023-04-16T21:35:08.616Z,5.08
2023-04-16T21:38:14.749Z,42.93
2023-04-16T21:41:20.957Z,13.65
2023-04-16T21:44:28.540Z,6.28
2023-04-16T21:47:36.138Z,5.08
2023-04-16T21:50:43.342Z,4.53
2023-04-16T21:53:48.963Z,4.47
2023-04-16T21:56:55.350Z,4.33
2023-04-16T22:00:01.590Z,4.40
2023-04-16T22:03:07.340Z,4.67
2023-04-16T22:06:16.326Z,4.17
2023-04-16T22:09:22.480Z,4.28
2023-04-16T22:12:29.016Z,4.20
2023-04-16T22:15:34.111Z,3.60
2023-04-16T22:18:41.247Z,3.70
2023-04-16T22:21:48.947Z,3.87
2023-04-16T22:24:48.767Z,4.87
2023-04-16T22:27:56.541Z,3.60
2023-04-16T22:31:02.509Z,3.98
2023-04-16T22:34:08.407Z,4.12
2023-04-16T22:37:15.885Z,4.45
2023-04-16T22:40:24.726Z,4.12
2023-04-16T22:43:31.624Z,3.80
2023-04-16T22:46:37.684Z,4.12
2023-04-16T22:49:46.501Z,4.35
2023-04-16T22:52:53.091Z,4.08
2023-04-16T22:56:01.296Z,3.72
2023-04-16T22:59:06.520Z,4.58
2023-04-16T23:02:12.488Z,3.65
2023-04-16T23:05:18.150Z,4.35
2023-04-16T23:08:23.722Z,3.47
2023-04-16T23:11:28.853Z,4.12
2023-04-16T23:14:37.315Z,3.72
2023-04-16T23:17:36.325Z,3.90
2023-04-16T23:20:44.309Z,3.77
2023-04-16T23:23:51.638Z,3.75
2023-04-16T23:26:59.786Z,3.67
2023-04-16T23:30:05.445Z,3.62
2023-04-16T23:33:12.124Z,3.58
2023-04-16T23:36:17.405Z,3.77
2023-04-16T23:39:23.680Z,4.03
2023-04-16T23:42:30.364Z,3.75
2023-04-16T23:45:36.100Z,3.98
2023-04-16T23:48:43.223Z,4.30
2023-04-16T23:51:48.528Z,4.10
2023-04-16T23:54:47.985Z,4.20
2023-04-16T23:57:54.578Z,3.75
